Time;durP1;ratioP1;P1;durP2;ratioP2;P2;SDS_P1;SDS_P2;PMS_P1;PMS_P2;Temp;Humidity;BMP_temperature;BMP_pressure;BME280_temperature;BME280_humidity;BME280_pressure;Samples;Min_cycle;Max_cycle;Signal;HPM_P1;HPM_P2
2023/08/26 00:02:09;;;;;;;86.75;38.10;;;;;;;16.18;100.00;100673.00;10441838;28;20037;-71
2023/08/26 00:07:10;;;;;;;87.75;37.15;;;;;;;16.22;100.00;100655.44;10441501;28;20087;-70
2023/08/26 00:12:10;;;;;;;85.00;36.92;;;;;;;16.23;100.00;100671.00;10440359;28;20037;-70
2023/08/26 00:17:11;;;;;;;93.40;40.15;;;;;;;16.22;100.00;100666.56;10441972;28;20049;-71
2023/08/26 00:22:11;;;;;;;102.85;40.28;;;;;;;16.14;100.00;100653.31;10434149;28;20041;-71
2023/08/26 00:27:12;;;;;;;112.00;43.05;;;;;;;16.17;100.00;100658.31;10440334;28;20348;-71
2023/08/26 00:32:13;;;;;;;98.65;39.70;;;;;;;16.08;100.00;100643.41;10434474;28;20038;-71
2023/08/26 00:37:13;;;;;;;105.93;41.72;;;;;;;16.00;100.00;100652.38;10439690;28;20538;-71
2023/08/26 00:42:14;;;;;;;102.97;39.47;;;;;;;16.00;100.00;100650.47;10439307;28;20036;-71
2023/08/26 00:47:14;;;;;;;104.78;40.15;;;;;;;16.07;100.00;100670.34;10439749;28;20036;-71
2023/08/26 00:52:15;;;;;;;89.45;34.45;;;;;;;15.86;100.00;100647.56;10435310;28;20034;-71
2023/08/26 00:57:15;;;;;;;84.72;34.38;;;;;;;15.93;100.00;100664.69;10436897;28;20041;-71
2023/08/26 01:02:16;;;;;;;81.13;32.58;;;;;;;16.04;100.00;100686.78;10435285;28;20091;-68
2023/08/26 01:07:16;;;;;;;86.88;30.10;;;;;;;16.04;100.00;100675.66;10434296;28;20234;-71
2023/08/26 01:12:31;;;;;;;75.90;28.95;;;;;;;15.93;100.00;100675.78;10433178;28;20490;-71
2023/08/26 01:17:31;;;;;;;71.93;27.92;;;;;;;15.85;100.00;100672.84;10419559;28;20055;-71
2023/08/26 01:22:33;;;;;;;65.15;26.83;;;;;;;15.78;100.00;100672.38;10420706;28;20045;-71
2023/08/26 01:27:33;;;;;;;66.38;26.52;;;;;;;15.75;100.00;100671.03;10437079;28;20128;-71
2023/08/26 01:32:41;;;;;;;64.47;25.90;;;;;;;15.66;100.00;100661.63;10434881;28;20384;-71
2023/08/26 01:37:42;;;;;;;61.85;25.42;;;;;;;15.60;100.00;100658.06;10436131;28;20041;-71
2023/08/26 01:42:43;;;;;;;58.15;25.00;;;;;;;15.55;100.00;100658.16;10435267;28;20053;-71
2023/08/26 01:47:44;;;;;;;59.90;23.60;;;;;;;15.41;100.00;100668.28;10434426;28;20442;-71
2023/08/26 01:52:44;;;;;;;55.30;23.10;;;;;;;15.36;100.00;100677.47;10433938;28;20106;-71
2023/08/26 01:57:45;;;;;;;47.10;21.70;;;;;;;15.28;100.00;100684.47;10438800;28;20056;-70
2023/08/26 02:02:45;;;;;;;41.85;20.67;;;;;;;15.25;100.00;100676.72;10429718;28;20045;-71
2023/08/26 02:07:46;;;;;;;47.10;18.90;;;;;;;15.22;100.00;100682.84;10439734;28;20063;-70
2023/08/26 02:12:46;;;;;;;40.15;18.60;;;;;;;15.14;100.00;100681.53;10439588;28;20037;-72
2023/08/26 02:17:47;;;;;;;38.80;17.88;;;;;;;15.09;100.00;100684.34;10433540;28;20041;-71
2023/08/26 02:22:48;;;;;;;38.28;18.45;;;;;;;15.10;100.00;100686.00;10435426;28;20489;-68
2023/08/26 02:27:48;;;;;;;31.38;15.00;;;;;;;15.00;100.00;100685.25;10428443;28;20617;-71
2023/08/26 02:32:48;;;;;;;28.95;15.60;;;;;;;14.92;100.00;100679.22;10419231;28;20132;-71
2023/08/26 02:37:49;;;;;;;30.58;16.20;;;;;;;14.87;100.00;100686.72;10433291;28;20052;-70
2023/08/26 02:42:49;;;;;;;26.42;15.57;;;;;;;14.78;100.00;100677.34;10436665;28;20068;-71
2023/08/26 02:47:50;;;;;;;27.40;15.02;;;;;;;14.73;100.00;100681.81;10432604;28;20485;-70
2023/08/26 02:52:51;;;;;;;27.52;13.98;;;;;;;14.73;100.00;100684.59;10436147;28;20539;-71
2023/08/26 02:57:51;;;;;;;27.13;13.55;;;;;;;14.65;100.00;100682.41;10419981;28;20041;-69
2023/08/26 03:02:52;;;;;;;31.60;13.80;;;;;;;14.60;100.00;100679.69;10431607;28;20089;-70
2023/08/26 03:07:52;;;;;;;27.25;13.85;;;;;;;14.51;100.00;100687.75;10435942;28;21393;-71
2023/08/26 03:12:54;;;;;;;23.10;13.70;;;;;;;14.42;100.00;100685.84;10432670;28;20037;-71
2023/08/26 03:17:55;;;;;;;30.70;14.57;;;;;;;14.50;100.00;100699.09;10432953;28;20524;-71
2023/08/26 03:22:56;;;;;;;24.98;12.43;;;;;;;14.44;100.00;100695.53;10466168;28;20040;-71
2023/08/26 03:27:56;;;;;;;22.90;12.57;;;;;;;14.39;100.00;100697.50;10440907;28;20511;-70
2023/08/26 03:32:57;;;;;;;22.00;12.35;;;;;;;14.35;100.00;100690.88;10440792;28;20452;-70
2023/08/26 03:37:57;;;;;;;26.25;13.13;;;;;;;14.33;100.00;100700.28;10441168;28;20083;-71
2023/08/26 03:43:00;;;;;;;24.25;11.63;;;;;;;14.32;100.00;100703.34;10440851;28;20041;-70
2023/08/26 03:48:00;;;;;;;29.15;12.13;;;;;;;14.28;100.00;100705.00;10444331;28;20046;-72
2023/08/26 03:53:00;;;;;;;21.17;11.93;;;;;;;14.22;100.00;100715.31;10439941;28;20045;-71
2023/08/26 03:58:01;;;;;;;20.35;10.27;;;;;;;14.12;100.00;100710.63;10441625;28;20040;-70
2023/08/26 04:03:01;;;;;;;25.58;12.15;;;;;;;13.98;100.00;100714.28;10437391;28;20049;-71
2023/08/26 04:08:02;;;;;;;20.13;10.50;;;;;;;13.83;100.00;100715.97;10439883;28;20061;-71
2023/08/26 04:13:18;;;;;;;15.80;10.40;;;;;;;13.68;100.00;100715.97;10438344;28;20045;-71
2023/08/26 04:18:20;;;;;;;18.48;11.35;;;;;;;13.52;100.00;100707.72;10431470;28;20120;-71
2023/08/26 04:23:20;;;;;;;16.00;10.00;;;;;;;13.46;100.00;100713.53;10408008;28;20067;-70
2023/08/26 04:28:21;;;;;;;20.00;10.90;;;;;;;13.34;100.00;100727.63;10436458;28;20064;-71
2023/08/26 04:33:21;;;;;;;17.48;10.65;;;;;;;13.26;100.00;100726.22;10438204;28;20123;-71
2023/08/26 04:38:22;;;;;;;19.17;10.77;;;;;;;13.24;100.00;100728.41;10435131;28;20433;-71
2023/08/26 04:43:22;;;;;;;19.40;10.50;;;;;;;13.10;100.00;100722.63;10428103;28;20038;-71
2023/08/26 04:48:23;;;;;;;18.67;10.70;;;;;;;13.08;100.00;100741.41;10437504;28;20041;-71
2023/08/26 04:53:23;;;;;;;23.98;13.15;;;;;;;13.07;100.00;100756.31;10456317;28;20060;-71
2023/08/26 04:58:24;;;;;;;22.35;12.52;;;;;;;13.02;100.00;100738.91;10434310;28;20555;-70
2023/08/26 05:03:24;;;;;;;33.83;14.27;;;;;;;13.04;100.00;100734.78;10438853;28;20334;-71
2023/08/26 05:08:25;;;;;;;25.67;13.00;;;;;;;13.05;100.00;100733.66;10438513;28;20053;-70
2023/08/26 05:13:26;;;;;;;24.85;13.13;;;;;;;13.05;100.00;100732.84;10424917;28;20037;-71
2023/08/26 05:18:26;;;;;;;29.85;13.88;;;;;;;13.08;100.00;100741.41;10438806;28;20137;-71
2023/08/26 05:23:27;;;;;;;28.85;16.45;;;;;;;13.22;100.00;100741.69;10416942;28;20061;-71
2023/08/26 05:28:27;;;;;;;26.90;14.30;;;;;;;13.40;100.00;100742.28;10435960;28;20046;-70
2023/08/26 05:33:28;;;;;;;27.10;13.38;;;;;;;13.53;100.00;100737.03;10439472;28;20367;-71
2023/08/26 05:38:28;;;;;;;26.42;13.88;;;;;;;13.63;100.00;100747.25;10453100;28;20037;-67
2023/08/26 05:43:30;;;;;;;24.42;13.60;;;;;;;13.70;100.00;100752.50;10428734;28;20456;-71
2023/08/26 05:48:30;;;;;;;27.40;13.02;;;;;;;13.79;100.00;100745.31;10438704;28;20531;-70
2023/08/26 05:53:31;;;;;;;30.05;14.52;;;;;;;14.03;100.00;100751.06;10432650;28;20037;-70
2023/08/26 05:58:31;;;;;;;24.45;12.05;;;;;;;14.17;100.00;100745.75;10433656;28;20041;-71
2023/08/26 06:03:31;;;;;;;26.23;13.18;;;;;;;14.40;100.00;100744.28;10436860;28;20033;-70
2023/08/26 06:08:32;;;;;;;18.60;11.63;;;;;;;14.59;100.00;100747.28;10436456;28;20045;-71
2023/08/26 06:13:32;;;;;;;20.15;11.07;;;;;;;14.76;100.00;100768.25;10437088;28;20049;-71
2023/08/26 06:18:33;;;;;;;16.55;10.20;;;;;;;14.80;100.00;100775.75;10435246;28;20052;-70
2023/08/26 06:23:33;;;;;;;15.65;8.70;;;;;;;14.85;100.00;100789.56;10436793;28;20055;-70
2023/08/26 06:28:34;;;;;;;20.38;9.40;;;;;;;14.88;100.00;100793.69;10434229;28;20046;-70
2023/08/26 06:33:35;;;;;;;14.88;8.82;;;;;;;14.93;100.00;100802.00;10438466;28;20044;-70
2023/08/26 06:38:35;;;;;;;20.88;8.73;;;;;;;15.14;100.00;100809.06;10435107;28;20040;-70
2023/08/26 06:43:35;;;;;;;16.63;10.10;;;;;;;15.33;100.00;100800.91;10436172;28;20093;-70
2023/08/26 06:48:36;;;;;;;14.32;9.93;;;;;;;15.47;100.00;100816.91;10431425;28;20041;-71
2023/08/26 06:53:37;;;;;;;23.20;11.60;;;;;;;15.48;100.00;100819.41;10438367;28;20045;-70
2023/08/26 06:58:37;;;;;;;14.60;9.43;;;;;;;15.44;100.00;100829.44;10435446;28;20033;-70
2023/08/26 07:03:37;;;;;;;18.35;10.70;;;;;;;15.43;100.00;100833.31;10443042;28;20129;-70
2023/08/26 07:08:38;;;;;;;20.15;11.55;;;;;;;15.52;100.00;100830.72;10440542;28;20095;-70
2023/08/26 07:13:38;;;;;;;16.48;10.88;;;;;;;15.52;100.00;100834.38;10442389;28;20037;-71
2023/08/26 07:18:39;;;;;;;19.40;10.43;;;;;;;15.60;100.00;100837.63;10439240;28;20517;-71
2023/08/26 07:23:39;;;;;;;17.27;11.18;;;;;;;15.64;100.00;100825.66;10423662;28;20053;-71
2023/08/26 07:28:40;;;;;;;17.98;12.93;;;;;;;15.80;100.00;100826.41;10423294;28;20049;-71
2023/08/26 07:33:40;;;;;;;20.08;11.40;;;;;;;15.93;100.00;100827.66;10427487;28;20034;-70
2023/08/26 07:38:41;;;;;;;16.70;12.65;;;;;;;15.93;100.00;100842.38;10418773;28;20049;-71
2023/08/26 07:43:41;;;;;;;20.60;12.93;;;;;;;16.04;100.00;100853.38;10414550;28;20038;-72
2023/08/26 07:48:42;;;;;;;21.98;14.18;;;;;;;16.16;100.00;100845.50;10409815;28;20065;-72
2023/08/26 07:53:42;;;;;;;21.98;15.07;;;;;;;16.23;100.00;100854.34;10444527;28;20044;-71
2023/08/26 07:58:43;;;;;;;26.40;16.98;;;;;;;16.39;100.00;100859.72;10426600;28;20037;-71
2023/08/26 08:03:43;;;;;;;24.65;16.25;;;;;;;16.37;100.00;100870.28;10423232;28;20030;-71
2023/08/26 08:08:44;;;;;;;25.08;15.85;;;;;;;16.25;100.00;100865.97;10415519;28;20037;-71
2023/08/26 08:13:44;;;;;;;23.95;16.33;;;;;;;16.32;100.00;100860.88;10408235;28;20041;-68
2023/08/26 08:18:45;;;;;;;22.65;14.98;;;;;;;16.62;100.00;100877.53;10438954;28;20045;-71
2023/08/26 08:23:45;;;;;;;19.75;14.73;;;;;;;16.64;100.00;100880.84;10432163;28;20143;-71
2023/08/26 08:28:46;;;;;;;28.08;15.90;;;;;;;17.10;100.00;100874.78;10425641;28;20092;-71
2023/08/26 08:33:46;;;;;;;21.80;14.77;;;;;;;17.09;100.00;100885.06;10411440;28;20048;-70
2023/08/26 08:38:47;;;;;;;22.35;14.45;;;;;;;16.88;100.00;100881.69;10429216;28;20029;-71
2023/08/26 08:43:47;;;;;;;23.65;16.65;;;;;;;16.68;100.00;100896.66;10437633;28;20374;-71
2023/08/26 08:48:48;;;;;;;25.48;16.70;;;;;;;16.56;100.00;100885.13;10439162;28;20041;-70
2023/08/26 08:53:49;;;;;;;26.73;17.92;;;;;;;16.64;100.00;100878.91;10419228;28;20044;-70
2023/08/26 08:58:51;;;;;;;25.73;17.23;;;;;;;17.00;100.00;100875.72;10421736;28;20048;-70
2023/08/26 09:03:51;;;;;;;22.73;15.73;;;;;;;17.03;100.00;100869.59;10392231;28;20046;-70
2023/08/26 09:08:52;;;;;;;25.42;15.88;;;;;;;17.41;100.00;100885.50;10406374;28;20046;-72
2023/08/26 09:13:52;;;;;;;18.33;12.15;;;;;;;17.56;100.00;100882.47;10408050;28;20091;-70
2023/08/26 09:18:56;;;;;;;14.27;10.00;;;;;;;17.56;100.00;100871.34;10438755;28;20068;-72
2023/08/26 09:23:56;;;;;;;15.75;10.50;;;;;;;17.67;100.00;100874.78;10435016;28;20069;-70
2023/08/26 09:28:57;;;;;;;15.80;10.70;;;;;;;17.55;100.00;100880.84;10439371;28;20041;-71
2023/08/26 09:34:00;;;;;;;18.52;11.00;;;;;;;17.80;100.00;100876.81;10438672;28;20040;-70
2023/08/26 09:39:01;;;;;;;15.77;9.82;;;;;;;18.08;100.00;100885.28;10439957;28;20124;-70
2023/08/26 09:44:03;;;;;;;12.40;9.68;;;;;;;18.16;100.00;100881.81;10439225;28;20042;-70
2023/08/26 09:49:04;;;;;;;13.85;10.25;;;;;;;18.41;100.00;100896.44;10439821;28;20602;-71
2023/08/26 09:54:04;;;;;;;12.15;10.70;;;;;;;18.66;100.00;100890.34;10440206;28;20033;-70
2023/08/26 09:59:05;;;;;;;14.63;9.20;;;;;;;19.04;100.00;100904.16;10439124;28;20048;-70
2023/08/26 10:04:10;;;;;;;15.60;9.07;;;;;;;19.20;100.00;100906.63;10432074;28;20037;-69
2023/08/26 10:09:33;;;;;;;13.00;8.93;;;;;;;19.32;100.00;100909.69;10438019;28;20033;-70
2023/08/26 10:14:33;;;;;;;16.15;8.27;;;;;;;19.47;100.00;100905.75;10435980;28;20048;-70
2023/08/26 10:19:34;;;;;;;14.77;9.02;;;;;;;19.65;100.00;100898.34;10434496;28;20533;-69
2023/08/26 10:24:36;;;;;;;13.25;8.00;;;;;;;19.87;100.00;100897.59;10416562;28;20095;-70
2023/08/26 10:29:36;;;;;;;11.05;7.13;;;;;;;20.14;100.00;100886.28;10434913;28;20080;-71
2023/08/26 10:34:37;;;;;;;6.72;5.32;;;;;;;20.74;100.00;100890.56;10439143;28;20053;-70
2023/08/26 10:39:37;;;;;;;5.60;4.85;;;;;;;21.09;100.00;100875.88;10445184;28;20049;-70
2023/08/26 10:44:41;;;;;;;7.93;5.22;;;;;;;21.42;100.00;100884.69;10443991;28;20036;-69
2023/08/26 10:49:41;;;;;;;8.82;5.15;;;;;;;20.91;100.00;100891.78;10421577;28;20646;-70
2023/08/26 10:54:45;;;;;;;9.75;4.93;;;;;;;20.18;100.00;100897.66;10429976;28;20036;-70
2023/08/26 10:59:47;;;;;;;7.82;4.97;;;;;;;20.02;100.00;100897.19;10420093;28;20037;-69
2023/08/26 11:04:47;;;;;;;13.10;6.18;;;;;;;20.58;100.00;100889.34;10438465;28;20068;-69
2023/08/26 11:09:48;;;;;;;7.75;4.13;;;;;;;21.01;100.00;100880.28;10431556;28;20033;-69
2023/08/26 11:14:48;;;;;;;8.20;5.25;;;;;;;21.83;100.00;100876.94;10442658;28;20063;-69
2023/08/26 11:19:49;;;;;;;12.52;4.68;;;;;;;21.98;100.00;100886.84;10439635;28;20656;-68
2023/08/26 11:24:50;;;;;;;7.85;4.47;;;;;;;21.22;100.00;100897.31;10439859;28;20037;-69
2023/08/26 11:29:51;;;;;;;1.92;0.90;;;;;;;19.56;100.00;100907.47;10442913;28;20041;-68
2023/08/26 11:34:52;;;;;;;1.85;0.55;;;;;;;18.42;100.00;100906.44;10441414;28;20041;-68
2023/08/26 11:39:53;;;;;;;2.13;1.05;;;;;;;17.99;100.00;100926.13;10439981;28;20033;-68
2023/08/26 11:44:53;;;;;;;4.22;1.13;;;;;;;18.18;100.00;100910.19;10435921;28;20041;-68
2023/08/26 11:49:55;;;;;;;3.55;1.13;;;;;;;18.58;100.00;100905.00;10425380;28;20116;-67
2023/08/26 11:54:55;;;;;;;3.40;1.95;;;;;;;18.30;100.00;100924.47;10411083;28;20045;-67
2023/08/26 12:00:31;;;;;;;6.82;1.90;;;;;;;18.32;100.00;100925.00;10429211;28;20091;-65
2023/08/26 12:05:43;;;;;;;3.88;2.13;;;;;;;18.37;100.00;100926.03;10339140;28;20033;-67
2023/08/26 12:10:49;;;;;;;3.22;1.90;;;;;;;18.75;100.00;100926.75;10422987;28;20049;-68
2023/08/26 12:15:50;;;;;;;;;;;;;;;19.58;100.00;100923.09;10434036;28;20041;-67
2023/08/26 12:20:50;;;;;;;2.85;1.45;;;;;;;21.15;100.00;100903.38;10442762;28;19927;-67
2023/08/26 12:25:51;;;;;;;3.75;1.38;;;;;;;22.67;100.00;100894.28;10439777;28;20447;-68
2023/08/26 12:30:52;;;;;;;3.13;1.30;;;;;;;23.91;100.00;100883.63;10437985;28;20099;-68
2023/08/26 12:35:53;;;;;;;4.75;1.42;;;;;;;24.31;100.00;100866.19;10438695;28;20037;-68
2023/08/26 12:40:53;;;;;;;2.45;1.00;;;;;;;24.05;100.00;100874.09;10439071;28;20124;-67
2023/08/26 12:45:54;;;;;;;2.53;1.00;;;;;;;23.03;100.00;100881.75;10436103;28;20053;-68
2023/08/26 12:50:54;;;;;;;3.63;1.27;;;;;;;22.35;100.00;100900.16;10438217;28;21012;-68
2023/08/26 12:55:55;;;;;;;4.07;1.45;;;;;;;22.04;100.00;100913.56;10440752;28;20443;-68
2023/08/26 13:00:55;;;;;;;6.05;1.80;;;;;;;22.51;100.00;100886.44;10438419;28;20408;-68
2023/08/26 13:05:56;;;;;;;4.15;1.45;;;;;;;22.96;100.00;100902.78;10434381;28;20417;-68
2023/08/26 13:10:57;;;;;;;3.97;1.58;;;;;;;22.06;100.00;100908.44;10439542;28;20063;-68
2023/08/26 13:15:58;;;;;;;5.32;2.08;;;;;;;21.54;100.00;100929.69;10434137;28;20111;-68
2023/08/26 13:20:58;;;;;;;5.47;1.70;;;;;;;20.95;100.00;100926.38;10441449;28;20040;-68
2023/08/26 13:25:59;;;;;;;2.97;1.67;;;;;;;21.49;100.00;100927.03;10432474;28;20037;-68
2023/08/26 13:31:02;;;;;;;3.60;2.03;;;;;;;22.26;100.00;100905.00;10439349;28;20082;-68
2023/08/26 13:36:02;;;;;;;3.85;1.90;;;;;;;23.15;100.00;100893.94;10436834;28;20363;-68
2023/08/26 13:41:03;;;;;;;5.57;1.48;;;;;;;23.36;100.00;100879.09;10435253;28;20068;-68
2023/08/26 13:46:03;;;;;;;2.75;1.98;;;;;;;23.30;100.00;100886.09;10438844;28;20524;-68
2023/08/26 13:51:04;;;;;;;3.30;1.55;;;;;;;23.93;100.00;100863.59;10436112;28;20413;-69
2023/08/26 13:56:04;;;;;;;3.50;1.00;;;;;;;24.25;100.00;100866.78;10434074;28;20061;-67
2023/08/26 14:01:05;;;;;;;1.98;1.38;;;;;;;23.40;100.00;100871.63;10436341;28;20041;-68
2023/08/26 14:06:06;;;;;;;5.63;1.13;;;;;;;24.71;100.00;100861.94;10422353;28;20037;-66
2023/08/26 14:11:06;;;;;;;1.50;1.25;;;;;;;24.93;100.00;100866.31;10409588;28;25876;-68
2023/08/26 14:16:07;;;;;;;3.88;1.90;;;;;;;23.75;100.00;100872.19;10439069;28;20043;-68
2023/08/26 14:21:07;;;;;;;3.30;1.65;;;;;;;22.91;100.00;100888.09;10431790;28;20037;-68
2023/08/26 14:26:08;;;;;;;3.38;2.00;;;;;;;22.83;100.00;100920.66;10430895;28;20061;-67
2023/08/26 14:31:08;;;;;;;3.25;2.25;;;;;;;23.30;100.00;100905.75;10437801;28;20037;-68
2023/08/26 14:36:09;;;;;;;4.45;2.05;;;;;;;23.25;100.00;100905.94;10435908;28;20033;-68
2023/08/26 14:41:09;;;;;;;2.90;1.63;;;;;;;22.38;100.00;100914.69;10437054;28;20037;-68
2023/08/26 14:46:09;;;;;;;3.92;1.73;;;;;;;21.36;100.00;100939.19;10432279;28;20037;-68
2023/08/26 14:51:10;;;;;;;5.18;1.92;;;;;;;20.72;100.00;100940.44;10435244;28;20044;-68
2023/08/26 14:56:12;;;;;;;4.32;1.83;;;;;;;20.33;100.00;100955.94;10419616;28;20041;-68
2023/08/26 15:01:12;;;;;;;2.25;2.00;;;;;;;20.11;100.00;100951.22;10433556;28;20417;-68
2023/08/26 15:06:13;;;;;;;2.83;2.50;;;;;;;19.78;100.00;100956.16;10434948;28;20057;-69
2023/08/26 15:11:15;;;;;;;5.30;3.15;;;;;;;19.26;100.00;100956.44;10433800;28;20041;-68
2023/08/26 15:16:16;;;;;;;4.50;3.70;;;;;;;18.83;100.00;100975.41;10435392;28;20033;-68
2023/08/26 15:21:18;;;;;;;6.78;3.50;;;;;;;17.99;100.00;101001.34;10415468;28;20038;-69
2023/08/26 15:26:18;;;;;;;4.95;3.45;;;;;;;17.36;100.00;101017.16;10429199;28;20041;-69
2023/08/26 15:31:19;;;;;;;5.32;4.45;;;;;;;17.05;100.00;101008.34;10414307;28;20034;-70
2023/08/26 15:36:19;;;;;;;7.43;4.70;;;;;;;16.82;100.00;101005.22;10397122;28;20057;-70
2023/08/26 15:41:20;;;;;;;4.57;3.67;;;;;;;16.59;100.00;100995.69;10399576;28;20052;-71
2023/08/26 15:46:20;;;;;;;3.05;2.25;;;;;;;16.38;100.00;101000.59;10398987;28;20054;-71
2023/08/26 15:51:21;;;;;;;2.95;2.50;;;;;;;16.24;100.00;100996.81;10397820;28;20052;-71
2023/08/26 15:56:21;;;;;;;2.20;2.00;;;;;;;16.06;100.00;101006.66;10393684;28;20037;-71
2023/08/26 16:01:27;;;;;;;2.55;2.15;;;;;;;16.16;100.00;101001.03;10398132;28;20040;-71
2023/08/26 16:06:28;;;;;;;3.97;2.57;;;;;;;16.26;100.00;100995.41;10430549;28;20104;-71
2023/08/26 16:11:30;;;;;;;2.95;2.40;;;;;;;16.40;100.00;100981.69;10444403;28;20283;-70
2023/08/26 16:16:31;;;;;;;3.13;2.03;;;;;;;16.06;100.00;100890.03;10439460;28;20060;-70
2023/08/26 16:21:31;;;;;;;2.47;1.98;;;;;;;16.74;100.00;100978.03;10442740;28;20037;-70
2023/08/26 16:26:32;;;;;;;2.58;2.17;;;;;;;16.87;100.00;100965.44;10439243;28;20045;-70
2023/08/26 16:31:32;;;;;;;2.78;2.20;;;;;;;17.04;100.00;100976.91;10443174;28;20064;-70
2023/08/26 16:36:33;;;;;;;1.55;1.38;;;;;;;17.37;100.00;100973.47;10443551;28;20037;-69
2023/08/26 16:41:34;;;;;;;1.50;1.30;;;;;;;17.72;100.00;100974.97;10441411;28;20038;-69
2023/08/26 16:46:34;;;;;;;2.38;1.67;;;;;;;17.60;100.00;100971.78;10435804;28;20037;-69
2023/08/26 16:51:34;;;;;;;3.33;1.65;;;;;;;17.33;100.00;100978.81;10432476;28;20061;-69
2023/08/26 16:56:35;;;;;;;3.70;1.58;;;;;;;17.14;100.00;100981.53;10442002;28;20053;-69
2023/08/26 17:01:35;;;;;;;4.68;2.08;;;;;;;16.90;100.00;100965.66;10448165;28;20048;-69
2023/08/26 17:06:36;;;;;;;5.25;3.22;;;;;;;16.74;100.00;100978.03;10432909;28;20106;-69
2023/08/26 17:11:36;;;;;;;2.63;1.98;;;;;;;16.57;100.00;100980.44;10435716;28;20049;-70
2023/08/26 17:16:37;;;;;;;3.35;2.03;;;;;;;16.39;100.00;100974.50;10437574;28;20051;-70
2023/08/26 17:21:37;;;;;;;2.92;1.83;;;;;;;16.21;100.00;100973.25;10455172;28;20569;-70
2023/08/26 17:26:38;;;;;;;3.53;1.67;;;;;;;16.06;100.00;100971.41;10438627;28;20047;-70
2023/08/26 17:31:38;;;;;;;1.75;1.40;;;;;;;15.90;100.00;100967.91;10423661;28;20045;-69
2023/08/26 17:36:39;;;;;;;2.25;1.88;;;;;;;15.78;100.00;100974.94;10438892;28;20058;-66
2023/08/26 17:41:39;;;;;;;1.88;1.67;;;;;;;15.61;100.00;100973.31;10438916;28;20038;-69
2023/08/26 17:46:40;;;;;;;3.63;2.13;;;;;;;15.53;100.00;100976.69;10436333;28;20045;-70
2023/08/26 17:51:40;;;;;;;3.42;2.03;;;;;;;15.43;100.00;100982.28;10439740;28;20044;-69
2023/08/26 17:56:41;;;;;;;4.25;2.13;;;;;;;15.33;100.00;100983.16;10424334;28;20076;-70
2023/08/26 18:01:41;;;;;;;5.57;2.30;;;;;;;15.21;100.00;100980.69;10410421;28;20052;-68
2023/08/26 18:06:42;;;;;;;4.45;2.50;;;;;;;15.17;100.00;100996.25;10432784;28;20079;-68
2023/08/26 18:11:42;;;;;;;3.45;2.45;;;;;;;15.13;100.00;100984.91;10429892;28;20076;-69
2023/08/26 18:16:43;;;;;;;3.08;2.38;;;;;;;15.20;100.00;100995.69;10436882;28;20052;-68
2023/08/26 18:21:43;;;;;;;3.28;2.33;;;;;;;15.07;100.00;101002.66;10441910;28;20071;-69
2023/08/26 18:26:44;;;;;;;5.13;2.80;;;;;;;14.95;100.00;101007.69;10436794;28;20040;-69
2023/08/26 18:31:44;;;;;;;3.63;2.78;;;;;;;14.81;100.00;101009.38;10434882;28;20033;-69
2023/08/26 18:36:45;;;;;;;3.72;2.47;;;;;;;14.68;100.00;101017.16;10435575;28;20040;-68
2023/08/26 18:41:45;;;;;;;2.72;2.13;;;;;;;14.56;100.00;101008.28;10438977;28;20119;-68
2023/08/26 18:46:47;;;;;;;3.03;2.47;;;;;;;14.41;100.00;101011.03;10434773;28;20140;-69
2023/08/26 18:51:48;;;;;;;2.92;2.20;;;;;;;14.25;100.00;101007.44;10455628;28;20132;-68
2023/08/26 18:56:49;;;;;;;4.47;2.40;;;;;;;14.15;100.00;101013.78;10446632;28;20060;-70
2023/08/26 19:01:50;;;;;;;2.83;2.25;;;;;;;14.04;100.00;101028.72;10442185;28;20041;-69
2023/08/26 19:06:50;;;;;;;5.35;3.10;;;;;;;13.99;100.00;101034.22;10444569;28;20528;-70
2023/08/26 19:11:51;;;;;;;4.93;2.83;;;;;;;13.92;100.00;101032.56;10443823;28;20385;-66
2023/08/26 19:16:52;;;;;;;4.20;3.00;;;;;;;13.88;100.00;101022.31;10444566;28;20052;-69
2023/08/26 19:21:52;;;;;;;4.43;3.13;;;;;;;13.81;100.00;101025.34;10442723;28;20037;-69
2023/08/26 19:26:53;;;;;;;4.22;3.17;;;;;;;13.77;100.00;101024.22;10444387;28;20101;-70
2023/08/26 19:31:54;;;;;;;5.55;3.63;;;;;;;13.71;100.00;101015.06;10444265;28;20041;-70
2023/08/26 19:36:54;;;;;;;5.18;3.90;;;;;;;13.65;100.00;101018.09;10431637;28;20060;-69
2023/08/26 19:41:55;;;;;;;5.55;4.20;;;;;;;13.61;100.00;101028.84;10448370;28;20302;-69
2023/08/26 19:46:55;;;;;;;5.28;4.30;;;;;;;13.56;100.00;101030.75;10424584;28;20048;-69
2023/08/26 19:51:56;;;;;;;5.45;4.43;;;;;;;13.52;100.00;101034.09;10444588;28;20061;-70
2023/08/26 19:57:05;;;;;;;5.65;4.28;;;;;;;13.47;100.00;101024.94;10442223;28;20076;-70
2023/08/26 20:02:05;;;;;;;7.00;5.30;;;;;;;13.41;100.00;101007.47;10443421;28;20087;-70
2023/08/26 20:07:06;;;;;;;8.88;5.18;;;;;;;13.36;100.00;101007.47;10445836;28;20049;-68
2023/08/26 20:12:07;;;;;;;6.38;5.03;;;;;;;13.25;100.00;101011.25;10444366;28;20075;-70
2023/08/26 20:17:08;;;;;;;9.82;5.78;;;;;;;13.17;100.00;101015.38;10434604;28;20033;-69
2023/08/26 20:22:09;;;;;;;8.55;6.05;;;;;;;13.18;100.00;101010.66;10420465;28;20107;-69
2023/08/26 20:27:09;;;;;;;8.98;6.85;;;;;;;13.12;100.00;101024.47;10439446;28;20455;-69
2023/08/26 20:32:10;;;;;;;8.93;6.38;;;;;;;13.09;100.00;101019.47;10441295;28;20032;-70
2023/08/26 20:37:10;;;;;;;9.45;6.90;;;;;;;13.06;100.00;101002.56;10444941;28;20052;-68
2023/08/26 20:42:11;;;;;;;9.77;7.38;;;;;;;13.04;100.00;101002.00;10432732;28;20106;-69
2023/08/26 20:47:11;;;;;;;11.30;6.85;;;;;;;13.01;100.00;100999.78;10430515;28;20060;-69
2023/08/26 20:52:12;;;;;;;9.50;7.13;;;;;;;12.96;100.00;101000.59;10430194;28;20056;-71
2023/08/26 20:57:13;;;;;;;12.98;7.13;;;;;;;13.02;100.00;101005.06;10435079;28;20056;-74
2023/08/26 21:02:13;;;;;;;11.00;7.88;;;;;;;13.05;100.00;100987.94;10440196;28;20041;-73
2023/08/26 21:07:14;;;;;;;13.80;8.05;;;;;;;13.07;100.00;100994.03;10423634;28;20091;-75
2023/08/26 21:12:14;;;;;;;10.45;7.97;;;;;;;13.10;100.00;101003.69;10428936;28;20090;-71
2023/08/26 21:17:15;;;;;;;13.60;9.10;;;;;;;13.11;100.00;101000.69;10437707;28;20044;-71
2023/08/26 21:22:15;;;;;;;12.85;9.63;;;;;;;13.08;100.00;100995.69;10439213;28;20100;-72
2023/08/26 21:27:16;;;;;;;13.45;9.60;;;;;;;13.00;100.00;100998.97;10441773;28;20041;-71
2023/08/26 21:32:16;;;;;;;15.95;9.80;;;;;;;12.99;100.00;100991.75;10436655;28;20052;-69
2023/08/26 21:37:17;;;;;;;13.68;9.88;;;;;;;12.96;100.00;100983.16;10440875;28;21041;-71
2023/08/26 21:42:17;;;;;;;12.60;9.43;;;;;;;12.65;100.00;100942.41;10438283;28;20044;-73
2023/08/26 21:47:18;;;;;;;14.52;10.02;;;;;;;12.93;100.00;100977.06;10439216;28;20611;-72
2023/08/26 21:52:18;;;;;;;13.82;9.95;;;;;;;12.91;100.00;100975.69;10440035;28;20045;-72
2023/08/26 21:57:19;;;;;;;14.90;10.18;;;;;;;12.86;100.00;100964.63;10442577;28;20040;-72
2023/08/26 22:02:20;;;;;;;16.52;10.95;;;;;;;12.79;100.00;100966.78;10440200;28;20041;-71
2023/08/26 22:07:20;;;;;;;12.65;9.68;;;;;;;12.72;100.00;100969.78;10437900;28;20049;-71
2023/08/26 22:12:20;;;;;;;14.40;9.82;;;;;;;12.66;100.00;100971.66;10432151;28;20041;-72
2023/08/26 22:17:21;;;;;;;13.80;9.65;;;;;;;12.62;100.00;100976.06;10437570;28;20048;-72
2023/08/26 22:22:21;;;;;;;14.57;9.82;;;;;;;12.57;100.00;100967.75;10442265;28;20048;-70
2023/08/26 22:27:22;;;;;;;16.33;10.40;;;;;;;12.56;100.00;100976.28;10437035;28;20094;-71
2023/08/26 22:32:22;;;;;;;13.90;10.60;;;;;;;12.40;100.00;100961.53;10451067;28;20048;-71